KMYF/MYF METAR and TAF weather

Enter ICAO airport designator
Station Type Date Time Source
KMYF METAR 2022/08/12 14:40 UTC NOAA

KMYF 121440Z 00000KT 6SM BR FEW003 21/18 A2995 RMK AO2 T02060183


Station Type Date Time Source
KMYF Decoded METAR 2022/08/12 14:40 UTC NOAA

SAN DIEGO MONTGOMERY FIELD, CA, United States (KMYF) 32-49N 117-08W 136M
Aug 12, 2022 - 10:40 AM EDT / 2022.08.12 1440 UTC
Wind: Calm:0
Visibility: 6 mile(s):0
Sky conditions: mostly clear
Weather: mist
Temperature: 69.1 F (20.6 C)
Dew Point: 64.9 F (18.3 C)
Relative Humidity: 86%
Pressure (altimeter): 29.95 in. Hg (1014 hPa)
ob: KMYF 121440Z 00000KT 6SM BR FEW003 21/18 A2995 RMK AO2 T02060183
cycle: 14

Station Type Date Time Source
KMYF TAF UTC NOAA

Error!

Example: see airport list